Wales Township, Michigan
Current Conditions -  °F | °C
As of 3:16 PM on Friday 24 Oct 2014 (Local Time) from KPHN Reporting Station
Overcast Overcast  
Wind Chill: 15°   Ceiling: 4800
Heat Index: 15°   Visibility: 10mi
Dew Point:   Wind: 8mph
Humidity: 55%   Direction: 250°WSW
Pressure: 29.98"   Gusts: NA
Location:  42.9446°N, 82.6827°W
Report Text: KPHN 241916Z AUTO 25007KT 10SM OVC048 15/06 A2998 RMK AO2
Loading
Personal Weather Stations






























Interactive Weather Map
Tropical Storm Tracking
New forecast layout! Learn more

10-Day Weather Forecast

Advertisements
Track Severe Weather on mobile